| time (UTC) | temp F | wind direction | speed MPH | gust MPH | rain 1hr in | rain 24hr in | rain mn in | humidity % | barometer mb |
| 20260904013120 | 60 | 201 | 2.0 | 5.0 | 0.00 | 0.25 | 0.25 | 75 | 1009.2 |
| 20260904011635 | 60 | 207 | 2.0 | 6.0 | 0.00 | 0.25 | 0.25 | 73 | 1009.1 |
| 20260904010054 | 60 | 197 | 3.0 | 7.0 | 0.00 | 0.25 | 0.25 | 73 | 1009.1 |
| 20260904004553 | 60 | 86 | 0.0 | 4.0 | 0.00 | 0.25 | 0.25 | 74 | 1009.3 |
| 20260904003053 | 60 | 143 | 2.0 | 7.0 | 0.00 | 0.25 | 0.25 | 74 | 1009.3 |
| 20260904001552 | 61 | 175 | 1.0 | 5.0 | 0.01 | 0.25 | 0.25 | 75 | 1009.4 |
| 20260904000050 | 60 | 196 | 2.0 | 6.0 | 0.01 | 0.25 | 0.25 | 73 | 1009.4 |
| 20260903234548 | 60 | 152 | 1.0 | 4.0 | 0.01 | 0.25 | 0.25 | 78 | 1009.4 |
| 20260903233048 | 59 | 168 | 5.0 | 9.0 | 0.01 | 0.25 | 0.25 | 79 | 1009.4 |
| 20260903231548 | 59 | 86 | 2.0 | 9.0 | 0.00 | 0.24 | 0.24 | 79 | 1009.4 |
| 20260903230046 | 59 | 227 | 5.0 | 13.0 | 0.00 | 0.24 | 0.24 | 78 | 1009.7 |
| 20260903224545 | 59 | 180 | 6.0 | 12.0 | 0.00 | 0.24 | 0.24 | 78 | 1009.8 |
| 20260903223046 | 59 | 211 | 4.0 | 7.0 | 0.00 | 0.24 | 0.24 | 79 | 1009.8 |
| 20260903221544 | 59 | 175 | 2.0 | 9.0 | 0.00 | 0.24 | 0.24 | 80 | 1009.8 |
| 20260903220047 | 58 | 119 | 3.0 | 7.0 | 0.01 | 0.24 | 0.24 | 80 | 1009.8 |
| 20260903214543 | 58 | 181 | 1.0 | 3.0 | 0.02 | 0.24 | 0.24 | 80 | 1009.9 |
| 20260903213041 | 58 | 149 | 2.0 | 5.0 | 0.02 | 0.24 | 0.24 | 80 | 1010.1 |
| 20260903211548 | 58 | 165 | 1.0 | 7.0 | 0.02 | 0.24 | 0.24 | 81 | 1010.1 |
| 20260903210052 | 58 | 174 | 5.0 | 13.0 | 0.01 | 0.25 | 0.23 | 80 | 1010.0 |
| 20260903204549 | 59 | 188 | 7.0 | 16.0 | 0.00 | 0.24 | 0.22 | 80 | 1009.8 |
| 20260903203037 | 60 | 205 | 5.0 | 12.0 | 0.00 | 0.24 | 0.22 | 80 | 1009.6 |
| 20260903201537 | 59 | 197 | 2.0 | 13.0 | 0.00 | 0.24 | 0.22 | 80 | 1009.6 |
| 20260903200037 | 59 | 204 | 7.0 | 15.0 | 0.00 | 0.28 | 0.22 | 80 | 1009.6 |
| 20260903194537 | 59 | 163 | 5.0 | 12.0 | 0.00 | 0.28 | 0.22 | 80 | 1009.5 |
| 20260903193035 | 59 | 232 | 2.0 | 7.0 | 0.00 | 0.28 | 0.22 | 81 | 1009.6 |
| 20260903191535 | 59 | 227 | 5.0 | 15.0 | 0.00 | 0.28 | 0.22 | 80 | 1009.9 |
| 20260903190036 | 60 | 122 | 5.0 | 14.0 | 0.00 | 0.32 | 0.22 | 80 | 1009.9 |
| 20260903184533 | 59 | 206 | 5.0 | 14.0 | 0.00 | 0.32 | 0.22 | 81 | 1009.9 |
| 20260903183029 | 58 | 155 | 6.0 | 11.0 | 0.00 | 0.32 | 0.22 | 80 | 1009.8 |
| 20260903181528 | 58 | 118 | 2.0 | 6.0 | 0.00 | 0.32 | 0.22 | 79 | 1009.5 |
| 20260903180027 | 58 | 188 | 2.0 | 8.0 | 0.00 | 0.39 | 0.22 | 78 | 1009.7 |
| 20260903174525 | 57 | 91 | 2.0 | 7.0 | 0.00 | 0.39 | 0.22 | 77 | 1009.8 |
| 20260903173023 | 56 | 143 | 0.0 | 2.0 | 0.01 | 0.39 | 0.22 | 76 | 1009.8 |
| 20260903171523 | 56 | 109 | 0.0 | 3.0 | 0.01 | 0.39 | 0.22 | 75 | 1009.9 |
| 20260903170033 | 55 | 220 | 2.0 | 5.0 | 0.01 | 0.40 | 0.22 | 74 | 1009.9 |
| 20260903164523 | 55 | 166 | 0.0 | 5.0 | 0.03 | 0.40 | 0.22 | 74 | 1009.9 |
| 20260903163033 | 55 | 158 | 1.0 | 6.0 | 0.03 | 0.39 | 0.21 | 73 | 1010.0 |
| 20260903161519 | 54 | 177 | 0.0 | 4.0 | 0.05 | 0.39 | 0.21 | 73 | 1009.9 |
| 20260903160019 | 54 | 197 | 0.0 | 6.0 | 0.05 | 0.39 | 0.21 | 74 | 1010.0 |
| 20260903154518 | 54 | 155 | 2.0 | 6.0 | 0.03 | 0.37 | 0.19 | 74 | 1009.8 |
| 20260903153017 | 55 | 186 | 2.0 | 7.0 | 0.02 | 0.36 | 0.18 | 74 | 1009.9 |
| 20260903151514 | 55 | 157 | 2.0 | 7.0 | 0.00 | 0.34 | 0.16 | 73 | 1009.8 |
| 20260903150013 | 55 | 197 | 1.0 | 8.0 | 0.00 | 0.34 | 0.16 | 72 | 1009.6 |
| 20260903144512 | 54 | 80 | 0.0 | 5.0 | 0.02 | 0.34 | 0.16 | 72 | 1009.5 |
| 20260903143011 | 54 | 117 | 0.0 | 6.0 | 0.07 | 0.34 | 0.16 | 72 | 1009.4 |
| 20260903141514 | 54 | 217 | 2.0 | 5.0 | 0.07 | 0.34 | 0.16 | 73 | 1009.3 |
| 20260903140009 | 54 | 146 | 0.0 | 5.0 | 0.08 | 0.34 | 0.16 | 73 | 1009.3 |
| 20260903134512 | 54 | 154 | 2.0 | 8.0 | 0.08 | 0.31 | 0.13 | 74 | 1009.2 |
| 20260903133006 | 54 | 190 | 2.0 | 9.0 | 0.05 | 0.27 | 0.09 | 74 | 1009.1 |
| 20260903131505 | 54 | 136 | 2.0 | 8.0 | 0.07 | 0.27 | 0.09 | 74 | 1009.0 |
| 20260903130003 | 55 | 163 | 0.0 | 5.0 | 0.07 | 0.26 | 0.08 | 75 | 1009.0 |
| 20260903124507 | 55 | 203 | 0.0 | 4.0 | 0.05 | 0.23 | 0.05 | 76 | 1009.1 |
| 20260903123102 | 55 | 171 | 0.0 | 6.0 | 0.04 | 0.22 | 0.04 | 77 | 1009.2 |
| 20260903121559 | 55 | 156 | 1.0 | 5.0 | 0.02 | 0.20 | 0.02 | 78 | 1009.2 |
| 20260903120104 | 56 | 162 | 1.0 | 8.0 | 0.01 | 0.19 | 0.01 | 79 | 1009.2 |
| 20260903114601 | 56 | 190 | 2.0 | 10.0 | 0.00 | 0.18 | 0.00 | 80 | 1009.2 |
| 20260903113058 | 56 | 191 | 2.0 | 7.0 | 0.00 | 0.18 | 0.00 | 80 | 1009.2 |
| 20260903111553 | 56 | 167 | 5.0 | 8.0 | 0.00 | 0.18 | 0.00 | 80 | 1009.2 |
| 20260903110052 | 56 | 140 | 4.0 | 12.0 | 0.00 | 0.18 | 0.00 | 80 | 1009.2 |
| 20260903104551 | 56 | 116 | 2.0 | 7.0 | 0.00 | 0.18 | 0.00 | 80 | 1009.2 |
| 20260903103052 | 56 | 180 | 2.0 | 7.0 | 0.00 | 0.18 | 0.00 | 79 | 1009.1 |
| 20260903101556 | 56 | 227 | 1.0 | 7.0 | 0.00 | 0.18 | 0.00 | 79 | 1009.2 |
| 20260903100051 | 56 | 169 | 1.0 | 5.0 | 0.00 | 0.18 | 0.00 | 79 | 1009.0 |
| 20260903094616 | 56 | 171 | 2.0 | 9.0 | 0.00 | 0.18 | 0.00 | 79 | 1009.1 |
| 20260903093047 | 56 | 188 | 3.0 | 8.0 | 0.00 | 0.18 | 0.00 | 79 | 1009.2 |
| 20260903091543 | 56 | 184 | 0.0 | 7.0 | 0.00 | 0.18 | 0.00 | 79 | 1009.1 |
| 20260903090040 | 56 | 161 | 0.0 | 8.0 | 0.00 | 0.18 | 0.00 | 78 | 1009.3 |
| 20260903084541 | 56 | 153 | 2.0 | 7.0 | 0.00 | 0.18 | 0.00 | 78 | 1009.4 |
| 20260903083042 | 56 | 211 | 2.0 | 6.0 | 0.00 | 0.18 | 0.00 | 78 | 1009.3 |
| 20260903081540 | 56 | 192 | 0.0 | 3.0 | 0.00 | 0.18 | 0.00 | 78 | 1009.4 |
| 20260903080051 | 56 | 178 | 1.0 | 4.0 | 0.00 | 0.18 | 0.00 | 78 | 1009.4 |
| 20260903074536 | 56 | 211 | 0.0 | 4.0 | 0.00 | 0.18 | 0.00 | 78 | 1009.5 |
| 20260903073034 | 57 | 198 | 0.0 | 6.0 | 0.00 | 0.18 | 0.00 | 78 | 1009.4 |
| 20260903071533 | 57 | 171 | 0.0 | 5.0 | 0.00 | 0.18 | 0.00 | 78 | 1009.2 |
| 20260903070032 | 57 | 172 | 0.0 | 5.0 | 0.00 | 0.18 | 0.18 | 78 | 1009.2 |
| 20260903064531 | 57 | 67 | 2.0 | 9.0 | 0.00 | 0.18 | 0.18 | 78 | 1009.2 |
| 20260903063030 | 57 | 75 | 3.0 | 8.0 | 0.00 | 0.18 | 0.18 | 78 | 1009.1 |
| 20260903061529 | 57 | 180 | 2.0 | 7.0 | 0.00 | 0.18 | 0.18 | 78 | 1009.3 |
| 20260903060029 | 57 | 179 | 1.0 | 8.0 | 0.00 | 0.18 | 0.18 | 78 | 1009.3 |
| 20260903054529 | 57 | 205 | 1.0 | 6.0 | 0.00 | 0.18 | 0.18 | 78 | 1009.3 |
| 20260903053028 | 57 | 205 | 2.0 | 7.0 | 0.00 | 0.18 | 0.18 | 77 | 1009.2 |
| 20260903051527 | 56 | 195 | 1.0 | 6.0 | 0.00 | 0.18 | 0.18 | 77 | 1009.3 |
| 20260903050027 | 56 | 227 | 0.0 | 3.0 | 0.00 | 0.18 | 0.18 | 76 | 1009.1 |
| 20260903044534 | 55 | 140 | 0.0 | 0.0 | 0.00 | 0.18 | 0.18 | 76 | 1009.0 |
| 20260903043027 | 55 | 140 | 0.0 | 0.0 | 0.00 | 0.18 | 0.18 | 76 | 1008.9 |
| 20260903041526 | 54 | 57 | 0.0 | 0.0 | 0.00 | 0.18 | 0.18 | 78 | 1008.7 |
| 20260903040024 | 55 | 57 | 0.0 | 0.0 | 0.00 | 0.18 | 0.18 | 79 | 1008.5 |
| 20260903034522 | 55 | 57 | 0.0 | 2.0 | 0.00 | 0.18 | 0.18 | 80 | 1008.2 |
| 20260903033019 | 56 | 44 | 0.0 | 1.0 | 0.00 | 0.18 | 0.18 | 80 | 1008.1 |
| 20260903031519 | 57 | 44 | 0.0 | 2.0 | 0.00 | 0.18 | 0.18 | 80 | 1008.0 |
| 20260903030019 | 59 | 154 | 0.0 | 1.0 | 0.00 | 0.18 | 0.18 | 79 | 1007.7 |
| 20260903024518 | 60 | 225 | 1.0 | 5.0 | 0.00 | 0.18 | 0.18 | 76 | 1007.7 |
| 20260903023017 | 61 | 238 | 1.0 | 8.0 | 0.00 | 0.18 | 0.18 | 73 | 1007.5 |
| 20260903021520 | 62 | 68 | 2.0 | 5.0 | 0.00 | 0.18 | 0.18 | 75 | 1007.3 |
| 20260903020016 | 63 | 203 | 2.0 | 6.0 | 0.00 | 0.18 | 0.18 | 78 | 1007.2 |
| 20260903014516 | 62 | 159 | 3.0 | 6.0 | 0.00 | 0.18 | 0.18 | 78 | 1007.2 |